createdAt,value
2022-08-05T00:00:46.420Z,100764.48
2022-08-05T00:03:18.584Z,100763.30
2022-08-05T00:06:04.679Z,100758.02
2022-08-05T00:08:36.957Z,100758.73
2022-08-05T00:11:23.811Z,100759.67
2022-08-05T00:13:56.210Z,100762.98
2022-08-05T00:16:36.394Z,100763.48
2022-08-05T00:19:13.568Z,100765.90
2022-08-05T00:21:42.688Z,100764.90
2022-08-05T00:24:15.977Z,100768.02
2022-08-05T00:26:51.791Z,100768.14
2022-08-05T00:29:22.635Z,100767.58
2022-08-05T00:32:12.141Z,100764.36
2022-08-05T00:35:03.689Z,100762.80
2022-08-05T00:37:50.384Z,100761.45
2022-08-05T00:40:27.149Z,100762.66
2022-08-05T00:43:00.394Z,100763.09
2022-08-05T00:45:38.467Z,100762.15
2022-08-05T00:48:10.026Z,100761.03
2022-08-05T00:50:41.239Z,100763.66
2022-08-05T00:54:01.401Z,100762.08
2022-08-05T00:55:59.334Z,100757.00
2022-08-05T00:58:28.969Z,100759.33
2022-08-05T01:00:57.343Z,100754.23
2022-08-05T01:03:31.047Z,100753.65
2022-08-05T01:06:02.614Z,100753.13
2022-08-05T01:08:43.173Z,100750.87
2022-08-05T01:11:22.380Z,100752.43
2022-08-05T01:14:11.586Z,100748.72
2022-08-05T01:17:02.723Z,100744.03
2022-08-05T01:20:01.915Z,100742.26
2022-08-05T01:22:37.732Z,100745.59
2022-08-05T01:25:43.231Z,100741.77
2022-08-05T01:28:27.539Z,100736.91
2022-08-05T01:30:57.274Z,100732.66
2022-08-05T01:33:38.503Z,100735.75
2022-08-05T01:36:18.529Z,100733.15
2022-08-05T01:38:53.448Z,100731.34
2022-08-05T01:41:25.613Z,100727.45
2022-08-05T01:43:55.882Z,100729.66
2022-08-05T01:46:42.280Z,100734.94
2022-08-05T01:49:23.315Z,100730.11
2022-08-05T01:52:01.111Z,100730.73
2022-08-05T01:54:46.173Z,100733.40
2022-08-05T01:58:10.722Z,100731.48
2022-08-05T02:00:12.029Z,100730.00
2022-08-05T02:02:51.130Z,100728.27
2022-08-05T02:05:28.605Z,100731.00
2022-08-05T02:08:01.214Z,100729.85
2022-08-05T02:10:39.909Z,100726.50
2022-08-05T02:13:16.468Z,100722.66
2022-08-05T02:15:51.025Z,100719.29
2022-08-05T02:18:30.855Z,100712.52
2022-08-05T02:21:05.766Z,100707.50
2022-08-05T02:23:43.659Z,100706.33
2022-08-05T02:26:21.798Z,100706.77
2022-08-05T02:28:50.915Z,100708.64
2022-08-05T02:31:23.267Z,100706.61
2022-08-05T02:33:57.612Z,100707.30
2022-08-05T02:36:31.571Z,100705.20
2022-08-05T02:39:03.419Z,100704.27
2022-08-05T02:41:43.319Z,100703.77
2022-08-05T02:44:23.475Z,100699.13
2022-08-05T02:46:58.864Z,100702.52
2022-08-05T02:49:36.137Z,100699.80
2022-08-05T02:52:09.341Z,100697.79
2022-08-05T02:54:40.994Z,100696.42
2022-08-05T02:58:12.114Z,100696.29
2022-08-05T03:00:04.286Z,100689.94
2022-08-05T03:02:37.121Z,100687.81
2022-08-05T03:05:08.889Z,100688.54
2022-08-05T03:07:56.592Z,100685.88
2022-08-05T03:10:28.474Z,100688.25
2022-08-05T03:15:24.869Z,100685.94
2022-08-05T03:17:55.629Z,100685.23
2022-08-05T03:20:25.140Z,100680.67
2022-08-05T03:22:55.283Z,100677.70
2022-08-05T03:25:33.241Z,100679.90
2022-08-05T03:28:18.844Z,100683.06
2022-08-05T03:30:57.398Z,100681.86
2022-08-05T03:33:42.353Z,100677.05
2022-08-05T03:36:29.807Z,100677.92
2022-08-05T03:39:07.803Z,100678.04
2022-08-05T03:41:45.391Z,100675.96
2022-08-05T03:44:19.913Z,100677.43
2022-08-05T03:46:50.326Z,100673.23
2022-08-05T03:49:19.189Z,100674.09
2022-08-05T03:52:36.559Z,100676.39
2022-08-05T03:55:51.765Z,100675.96
2022-08-05T03:57:42.376Z,100676.59
2022-08-05T04:00:15.489Z,100678.52
2022-08-05T04:02:58.718Z,100675.31
2022-08-05T04:05:33.304Z,100677.11
2022-08-05T04:08:05.788Z,100674.98
2022-08-05T04:10:45.682Z,100673.47
2022-08-05T04:13:18.458Z,100675.98
2022-08-05T04:16:02.936Z,100677.00
2022-08-05T04:18:34.395Z,100679.05
2022-08-05T04:21:05.033Z,100679.27
2022-08-05T04:24:04.884Z,100678.55
2022-08-05T04:26:24.622Z,100679.38
2022-08-05T04:28:53.460Z,100675.92
2022-08-05T04:31:22.455Z,100680.66
2022-08-05T04:34:31.997Z,100681.64
2022-08-05T04:36:50.024Z,100683.59
2022-08-05T04:39:19.679Z,100681.25
2022-08-05T04:41:48.843Z,100682.91
2022-08-05T04:44:30.082Z,100683.91
2022-08-05T04:47:00.143Z,100681.17
2022-08-05T04:50:02.582Z,100675.73
2022-08-05T04:52:29.496Z,100675.27
2022-08-05T04:55:14.371Z,100671.95
2022-08-05T04:57:47.485Z,100675.85
2022-08-05T05:00:23.485Z,100672.77
2022-08-05T05:02:52.482Z,100670.98
2022-08-05T05:05:28.270Z,100671.48
2022-08-05T05:08:01.938Z,100676.66
2022-08-05T05:10:33.584Z,100679.08
2022-08-05T05:13:04.224Z,100684.02
2022-08-05T05:15:57.135Z,100681.30
2022-08-05T05:18:31.242Z,100682.65
2022-08-05T05:21:03.211Z,100684.10
2022-08-05T05:24:02.475Z,100682.59
2022-08-05T05:26:28.887Z,100684.73
2022-08-05T05:29:02.286Z,100685.18
2022-08-05T05:34:02.393Z,100690.19
2022-08-05T05:36:32.249Z,100697.45
2022-08-05T05:39:04.339Z,100697.27
2022-08-05T05:41:40.110Z,100699.88
2022-08-05T05:44:35.744Z,100700.23
2022-08-05T05:47:04.361Z,100702.63
2022-08-05T05:49:33.723Z,100698.77
2022-08-05T05:52:06.013Z,100698.95
2022-08-05T05:54:51.314Z,100698.95
2022-08-05T05:57:42.886Z,100698.95
2022-08-05T06:00:31.365Z,100699.45
2022-08-05T06:03:40.651Z,100696.59
2022-08-05T06:06:01.965Z,100697.20
2022-08-05T06:08:35.308Z,100694.52
2022-08-05T06:11:10.288Z,100688.71
2022-08-05T06:13:50.257Z,100689.30
2022-08-05T06:16:30.335Z,100685.34
2022-08-05T06:19:05.915Z,100690.86
2022-08-05T06:21:38.509Z,100693.91
2022-08-05T06:24:14.731Z,100695.32
2022-08-05T06:26:52.192Z,100691.83
2022-08-05T06:29:43.193Z,100690.82
2022-08-05T06:32:21.081Z,100689.38
2022-08-05T06:34:58.012Z,100692.10
2022-08-05T06:37:56.945Z,100691.34
2022-08-05T06:40:20.798Z,100692.02
2022-08-05T06:42:51.924Z,100689.66
2022-08-05T06:45:45.008Z,100690.92
2022-08-05T06:48:44.395Z,100690.98
2022-08-05T06:51:00.427Z,100693.13
2022-08-05T06:53:29.448Z,100693.02
2022-08-05T06:56:06.340Z,100690.13
2022-08-05T06:58:54.977Z,100685.52
2022-08-05T07:01:23.875Z,100680.98
2022-08-05T07:04:02.982Z,100678.78
2022-08-05T07:06:32.378Z,100680.20
2022-08-05T07:09:03.735Z,100678.27
2022-08-05T07:11:49.476Z,100675.13
2022-08-05T07:14:46.979Z,100670.80
2022-08-05T07:18:02.048Z,100675.67
2022-08-05T07:20:33.409Z,100669.59
2022-08-05T07:23:49.926Z,100670.23
2022-08-05T07:26:25.676Z,100668.23
2022-08-05T07:31:59.836Z,100667.91
2022-08-05T07:34:42.008Z,100665.05
2022-08-05T07:37:26.218Z,100660.35
2022-08-05T07:40:27.027Z,100665.12
2022-08-05T07:43:19.989Z,100664.36
2022-08-05T07:45:56.979Z,100663.00
2022-08-05T07:49:02.655Z,100660.95
2022-08-05T07:56:04.938Z,100654.18
2022-08-05T07:58:54.737Z,100650.85
2022-08-05T08:01:57.598Z,100651.68
2022-08-05T08:04:41.803Z,100649.95
2022-08-05T08:07:27.328Z,100655.77
2022-08-05T08:10:05.424Z,100653.58
2022-08-05T08:12:49.297Z,100653.02
2022-08-05T08:15:37.255Z,100656.48
2022-08-05T08:18:20.849Z,100659.59
2022-08-05T08:21:03.112Z,100657.57
2022-08-05T08:24:02.127Z,100660.23
2022-08-05T08:26:29.953Z,100660.40
2022-08-05T08:29:45.522Z,100655.98
2022-08-05T08:32:00.328Z,100651.14
2022-08-05T08:34:33.197Z,100646.46
2022-08-05T08:37:04.872Z,100649.33
2022-08-05T08:45:16.413Z,100643.16
2022-08-05T08:46:10.118Z,100644.14
2022-08-05T08:49:06.279Z,100646.10
2022-08-05T08:52:04.105Z,100642.96
2022-08-05T08:54:27.294Z,100643.13
2022-08-05T08:57:01.178Z,100638.34
2022-08-05T08:59:33.600Z,100632.30
2022-08-05T09:02:17.738Z,100628.46
2022-08-05T09:05:16.253Z,100627.08
2022-08-05T09:07:57.655Z,100622.07
2022-08-05T09:10:30.429Z,100624.20
2022-08-05T09:13:04.484Z,100617.44
2022-08-05T09:15:36.832Z,100617.23
2022-08-05T09:18:08.857Z,100619.77
2022-08-05T09:20:42.653Z,100620.50
2022-08-05T09:23:21.880Z,100622.95
2022-08-05T09:26:09.251Z,100623.58
2022-08-05T09:28:40.096Z,100621.09
2022-08-05T09:31:22.593Z,100619.75
2022-08-05T09:34:02.611Z,100617.95
2022-08-05T09:36:54.132Z,100613.80
2022-08-05T09:43:02.501Z,100607.92
2022-08-05T09:46:07.238Z,100604.81
2022-08-05T09:49:06.552Z,100599.09
2022-08-05T09:51:55.390Z,100596.90
2022-08-05T09:54:46.405Z,100596.51
2022-08-05T09:57:29.385Z,100595.14
2022-08-05T10:00:12.006Z,100596.41
2022-08-05T10:02:47.122Z,100594.21
2022-08-05T10:05:19.153Z,100594.15
2022-08-05T10:08:35.462Z,100594.13
2022-08-05T10:10:54.998Z,100590.66
2022-08-05T10:13:46.312Z,100587.08
2022-08-05T10:16:37.774Z,100587.96
2022-08-05T10:19:23.821Z,100584.38
2022-08-05T10:22:01.159Z,100579.12
2022-08-05T10:24:34.283Z,100573.46
2022-08-05T10:27:12.875Z,100568.45
2022-08-05T10:30:41.096Z,100559.92
2022-08-05T10:32:54.148Z,100556.65
2022-08-05T10:35:43.954Z,100551.50
2022-08-05T10:38:14.938Z,100549.91
2022-08-05T10:40:52.122Z,100545.27
2022-08-05T10:43:35.781Z,100542.71
2022-08-05T10:46:07.179Z,100539.14
2022-08-05T10:48:52.508Z,100539.45
2022-08-05T10:51:29.128Z,100534.90
2022-08-05T10:54:22.992Z,100537.33
2022-08-05T10:56:55.573Z,100542.70
2022-08-05T11:00:03.500Z,100542.98
2022-08-05T11:02:37.638Z,100537.00
2022-08-05T11:05:11.629Z,100533.14
2022-08-05T11:08:01.295Z,100530.34
2022-08-05T11:10:37.786Z,100526.70
2022-08-05T11:13:55.027Z,100520.91
2022-08-05T11:16:33.802Z,100518.17
2022-08-05T11:20:11.466Z,100515.27
2022-08-05T11:22:39.371Z,100511.59
2022-08-05T11:26:04.584Z,100514.87
2022-08-05T11:28:52.669Z,100508.72
2022-08-05T11:31:58.537Z,100507.55
2022-08-05T11:34:51.525Z,100507.98
2022-08-05T11:38:29.003Z,100505.25
2022-08-05T11:41:58.250Z,100504.17
2022-08-05T11:44:40.150Z,100498.63
2022-08-05T11:47:15.161Z,100499.27
2022-08-05T11:49:49.611Z,100498.60
2022-08-05T11:52:29.367Z,100495.83
2022-08-05T11:55:07.730Z,100493.69
2022-08-05T11:58:09.389Z,100498.07
2022-08-05T12:00:58.559Z,100498.73
2022-08-05T12:03:40.034Z,100494.78
2022-08-05T12:06:11.367Z,100498.42
2022-08-05T12:08:50.924Z,100499.07
2022-08-05T12:11:28.335Z,100495.23
2022-08-05T12:14:10.516Z,100488.20
2022-08-05T12:16:45.406Z,100487.60
2022-08-05T12:20:26.436Z,100487.87
2022-08-05T12:22:26.461Z,100485.46
2022-08-05T12:24:58.195Z,100483.40
2022-08-05T12:27:33.051Z,100483.73
2022-08-05T12:30:05.424Z,100479.11
2022-08-05T12:32:35.435Z,100471.04
2022-08-05T12:35:06.688Z,100471.86
2022-08-05T12:37:37.097Z,100473.27
2022-08-05T12:40:20.769Z,100469.31
2022-08-05T12:42:57.840Z,100466.27
2022-08-05T12:45:49.583Z,100460.52
2022-08-05T12:48:32.398Z,100464.92
2022-08-05T12:52:10.972Z,100461.95
2022-08-05T12:54:23.399Z,100454.58
2022-08-05T12:56:56.868Z,100452.43
2022-08-05T13:00:09.005Z,100447.84
2022-08-05T13:02:30.752Z,100449.63
2022-08-05T13:05:01.004Z,100443.99
2022-08-05T13:07:57.410Z,100445.13
2022-08-05T13:10:23.766Z,100442.63
2022-08-05T13:12:58.233Z,100439.23
2022-08-05T13:15:42.203Z,100435.69
2022-08-05T13:18:20.428Z,100433.94
2022-08-05T13:20:52.200Z,100433.27
2022-08-05T13:23:23.183Z,100430.27
2022-08-05T13:25:59.372Z,100432.71
2022-08-05T13:28:33.582Z,100425.80
2022-08-05T13:31:14.443Z,100429.67
2022-08-05T13:34:20.954Z,100425.20
2022-08-05T13:36:39.689Z,100421.25
2022-08-05T13:39:24.428Z,100416.55
2022-08-05T13:42:00.321Z,100418.17
2022-08-05T13:44:29.974Z,100419.93
2022-08-05T13:47:04.513Z,100416.41
2022-08-05T13:49:37.370Z,100408.19
2022-08-05T13:52:16.059Z,100406.31
2022-08-05T13:54:53.381Z,100403.64
2022-08-05T13:57:23.151Z,100398.22
2022-08-05T13:59:57.157Z,100403.17
2022-08-05T14:02:29.930Z,100394.84
2022-08-05T14:05:15.421Z,100399.09
2022-08-05T14:08:00.725Z,100396.67
2022-08-05T14:10:35.030Z,100394.58
2022-08-05T14:13:03.615Z,100391.72
2022-08-05T14:16:07.235Z,100391.29
2022-08-05T14:18:23.315Z,100389.48
2022-08-05T14:20:54.945Z,100385.63
2022-08-05T14:23:26.038Z,100388.05
2022-08-05T14:25:58.477Z,100385.91
2022-08-05T14:28:29.093Z,100379.80
2022-08-05T14:30:58.031Z,100379.10
2022-08-05T14:33:59.106Z,100380.93
2022-08-05T14:36:45.092Z,100381.91
2022-08-05T14:39:18.047Z,100382.44
2022-08-05T14:42:15.933Z,100380.92
2022-08-05T14:44:42.971Z,100382.48
2022-08-05T14:47:58.426Z,100386.54
2022-08-05T14:50:14.231Z,100381.50
2022-08-05T14:52:53.449Z,100375.61
2022-08-05T14:55:39.637Z,100374.70
2022-08-05T14:58:23.535Z,100375.60
2022-08-05T15:01:47.980Z,100371.29
2022-08-05T15:04:35.243Z,100375.63
2022-08-05T15:08:08.642Z,100373.48
2022-08-05T15:10:51.176Z,100371.69
2022-08-05T15:13:50.366Z,100372.53
2022-08-05T15:16:43.807Z,100372.84
2022-08-05T15:23:09.340Z,100364.02
2022-08-05T15:25:53.384Z,100360.70
2022-08-05T15:28:33.166Z,100358.35
2022-08-05T15:31:03.692Z,100356.13
2022-08-05T15:34:05.941Z,100358.77
2022-08-05T15:36:26.541Z,100359.36
2022-08-05T15:40:41.604Z,100358.69
2022-08-05T15:41:56.143Z,100360.45
2022-08-05T15:44:30.691Z,100357.50
2022-08-05T15:47:10.270Z,100357.16
2022-08-05T15:49:58.801Z,100355.95
2022-08-05T15:52:52.799Z,100355.21
2022-08-05T15:55:25.158Z,100346.90
2022-08-05T15:58:16.704Z,100344.23
2022-08-05T16:00:57.135Z,100348.48
2022-08-05T16:03:36.481Z,100348.13
2022-08-05T16:06:11.342Z,100342.92
2022-08-05T16:08:40.471Z,100339.64
2022-08-05T16:11:10.392Z,100337.40
2022-08-05T16:13:39.945Z,100340.67
2022-08-05T16:16:15.900Z,100339.70
2022-08-05T16:19:03.233Z,100336.44
2022-08-05T16:21:58.928Z,100336.74
2022-08-05T16:24:40.129Z,100332.27
2022-08-05T16:27:16.101Z,100335.77
2022-08-05T16:29:50.850Z,100329.55
2022-08-05T16:32:23.452Z,100327.55
2022-08-05T16:34:58.679Z,100328.15
2022-08-05T16:38:15.171Z,100327.66
2022-08-05T16:40:25.125Z,100323.67
2022-08-05T16:43:00.437Z,100321.38
2022-08-05T16:46:04.753Z,100318.84
2022-08-05T16:48:33.405Z,100314.88
2022-08-05T16:51:09.762Z,100311.65
2022-08-05T16:54:02.811Z,100311.87
2022-08-05T16:56:30.384Z,100315.30
2022-08-05T16:59:00.980Z,100313.57
2022-08-05T17:01:53.937Z,100317.50
2022-08-05T17:04:26.441Z,100318.99
2022-08-05T17:06:55.935Z,100317.27
2022-08-05T17:09:27.392Z,100318.77
2022-08-05T17:11:59.625Z,100319.80
2022-08-05T17:14:37.663Z,100319.67
2022-08-05T17:17:09.417Z,100316.04
2022-08-05T17:19:45.986Z,100316.08
2022-08-05T17:22:25.595Z,100316.67
2022-08-05T17:24:58.773Z,100314.31
2022-08-05T17:27:33.288Z,100315.84
2022-08-05T17:30:03.300Z,100318.10
2022-08-05T17:32:33.787Z,100320.80
2022-08-05T17:35:03.388Z,100319.48
2022-08-05T17:37:40.066Z,100321.52
2022-08-05T17:40:13.559Z,100324.09
2022-08-05T17:42:50.586Z,100323.01
2022-08-05T17:45:22.152Z,100324.83
2022-08-05T17:47:56.033Z,100325.05
2022-08-05T17:50:28.587Z,100326.54
2022-08-05T17:53:14.208Z,100325.60
2022-08-05T17:55:43.568Z,100320.58
2022-08-05T17:58:16.375Z,100321.42
2022-08-05T18:00:51.140Z,100322.50
2022-08-05T18:06:42.295Z,100326.70
2022-08-05T18:10:00.480Z,100325.52
2022-08-05T18:13:48.098Z,100331.52
2022-08-05T18:17:59.553Z,100330.60
2022-08-05T18:20:29.341Z,100327.43
2022-08-05T18:23:11.408Z,100329.56
2022-08-05T18:25:44.766Z,100333.07
2022-08-05T18:28:21.859Z,100336.31
2022-08-05T18:30:54.146Z,100339.51
2022-08-05T18:33:46.678Z,100337.27
2022-08-05T18:36:19.483Z,100337.09
2022-08-05T18:38:50.402Z,100335.89
2022-08-05T18:41:58.533Z,100340.14
2022-08-05T18:44:14.619Z,100342.63
2022-08-05T18:47:05.106Z,100340.92
2022-08-05T18:49:58.211Z,100339.91
2022-08-05T18:52:35.887Z,100342.95
2022-08-05T18:55:10.963Z,100340.44
2022-08-05T18:57:43.129Z,100338.02
2022-08-05T19:00:20.393Z,100337.71
2022-08-05T19:02:52.875Z,100345.39
2022-08-05T19:06:13.218Z,100343.72
2022-08-05T19:08:15.360Z,100347.39
2022-08-05T19:10:50.680Z,100348.71
2022-08-05T19:13:20.156Z,100345.72
2022-08-05T19:16:00.236Z,100343.92
2022-08-05T19:18:37.551Z,100346.95
2022-08-05T19:21:13.442Z,100348.08
2022-08-05T19:24:05.997Z,100345.83
2022-08-05T19:26:34.509Z,100347.56
2022-08-05T19:29:10.591Z,100347.29
2022-08-05T19:31:50.990Z,100347.46
2022-08-05T19:34:27.502Z,100347.98
2022-08-05T19:37:02.495Z,100344.41
2022-08-05T19:39:45.958Z,100343.14
2022-08-05T19:42:36.058Z,100343.96
2022-08-05T19:45:14.623Z,100344.96
2022-08-05T19:47:44.762Z,100345.13
2022-08-05T19:50:15.735Z,100345.84
2022-08-05T19:52:47.627Z,100346.23
2022-08-05T19:56:14.630Z,100351.57
2022-08-05T19:58:28.797Z,100351.02
2022-08-05T20:01:01.055Z,100349.98
2022-08-05T20:03:42.195Z,100350.55
2022-08-05T20:06:28.832Z,100348.89
2022-08-05T20:09:13.739Z,100355.59
2022-08-05T20:11:48.320Z,100354.77
2022-08-05T20:14:27.151Z,100350.43
2022-08-05T20:17:01.833Z,100347.54
2022-08-05T20:19:36.182Z,100348.02
2022-08-05T20:22:12.578Z,100348.30
2022-08-05T20:24:41.475Z,100352.44
2022-08-05T20:27:15.880Z,100352.31
2022-08-05T20:29:57.436Z,100350.98
2022-08-05T20:32:38.081Z,100352.05
2022-08-05T20:35:26.427Z,100350.91
2022-08-05T20:38:07.714Z,100351.26
2022-08-05T20:40:37.595Z,100350.02
2022-08-05T20:43:11.984Z,100350.10
2022-08-05T20:45:55.953Z,100351.10
2022-08-05T20:48:25.626Z,100350.41
2022-08-05T20:50:54.485Z,100346.66
2022-08-05T20:53:36.961Z,100346.80
2022-08-05T20:56:09.871Z,100352.77
2022-08-05T20:58:38.393Z,100356.52
2022-08-05T21:01:07.128Z,100358.58
2022-08-05T21:03:36.533Z,100355.60
2022-08-05T21:06:27.792Z,100352.20
2022-08-05T21:08:57.606Z,100356.73
2022-08-05T21:12:09.747Z,100357.33
2022-08-05T21:14:18.660Z,100357.25
2022-08-05T21:16:47.266Z,100355.92
2022-08-05T21:19:15.610Z,100359.13
2022-08-05T21:21:51.005Z,100359.34
2022-08-05T21:24:23.746Z,100355.27
2022-08-05T21:26:57.928Z,100355.14
2022-08-05T21:29:32.033Z,100360.54
2022-08-05T21:32:05.786Z,100365.02
2022-08-05T21:34:35.442Z,100369.77
2022-08-05T21:37:08.360Z,100367.77
2022-08-05T21:39:40.675Z,100366.05
2022-08-05T21:42:30.729Z,100363.66
2022-08-05T21:44:59.806Z,100361.21
2022-08-05T21:47:56.698Z,100360.15
2022-08-05T21:50:18.491Z,100359.48
2022-08-05T21:52:48.326Z,100358.02
2022-08-05T21:55:18.475Z,100358.10
2022-08-05T21:58:10.546Z,100358.95
2022-08-05T22:00:40.307Z,100361.14
2022-08-05T22:03:14.202Z,100356.48
2022-08-05T22:05:48.464Z,100355.73
2022-08-05T22:08:22.193Z,100361.50
2022-08-05T22:10:53.335Z,100364.98
2022-08-05T22:14:34.437Z,100368.02
2022-08-05T22:16:39.124Z,100366.11
2022-08-05T22:19:00.040Z,100362.50
2022-08-05T22:21:30.398Z,100364.86
2022-08-05T22:24:40.259Z,100368.02
2022-08-05T22:27:24.195Z,100369.90
2022-08-05T22:30:14.563Z,100365.69
2022-08-05T22:32:45.651Z,100368.40
2022-08-05T22:35:14.631Z,100367.98
2022-08-05T22:37:58.928Z,100364.70
2022-08-05T22:40:28.262Z,100362.19
2022-08-05T22:42:59.355Z,100364.59
2022-08-05T22:45:28.141Z,100362.05
2022-08-05T22:47:59.100Z,100361.74
2022-08-05T22:50:27.745Z,100363.24
2022-08-05T22:52:56.452Z,100363.58
2022-08-05T22:55:26.072Z,100364.42
2022-08-05T22:57:55.016Z,100365.63
2022-08-05T23:00:23.964Z,100364.33
2022-08-05T23:02:53.327Z,100357.96
2022-08-05T23:05:22.586Z,100352.42
2022-08-05T23:07:51.617Z,100351.83
2022-08-05T23:10:23.840Z,100348.31
2022-08-05T23:12:54.413Z,100351.80
2022-08-05T23:15:29.650Z,100352.51
2022-08-05T23:18:05.864Z,100348.88
2022-08-05T23:20:40.025Z,100347.56
2022-08-05T23:23:11.365Z,100344.98
2022-08-05T23:25:50.962Z,100351.29
2022-08-05T23:28:22.546Z,100351.13
2022-08-05T23:30:53.435Z,100343.90
2022-08-05T23:33:26.203Z,100343.56
2022-08-05T23:36:13.575Z,100346.23
2022-08-05T23:38:43.411Z,100348.13
2022-08-05T23:41:12.828Z,100353.04
2022-08-05T23:44:05.275Z,100354.48
2022-08-05T23:46:29.836Z,100358.04
2022-08-05T23:49:00.277Z,100363.14
2022-08-05T23:51:52.495Z,100360.80
2022-08-05T23:54:26.084Z,100362.43
2022-08-05T23:57:03.156Z,100362.14
